Weather observations for the past three days for
Provincetown Municipal Airport
Metric (Imperial)
Date Time (edt) Wind (kph) Vis. (km) Weather Sky Cond. Temperature (ºC) Relative Humidity Wind Chill (°C) Heat Index (°C) Pressure Precipitation (cm)
Air Dwpt 6 hour altimeter (cm) sea level (mb) 1 hr 3 hr 6 hr
Max. Min.
04 20:56 SW 6 16.09 Fair CLR 17.8 17.2 96% 75.69 1009.1
04 19:56 Calm 12.87 Fair CLR 18.9 17.8 23.9 18.9 93% 75.67 1008.8
04 18:56 Calm 16.09 A Few Clouds FEW100 21.1 18.3 84% 75.67 1008.5
04 17:56 SE 6 16.09 Fair CLR 22.8 18.3 76% 75.64 1008.3
04 16:56 NE 11 16.09 Fair CLR 22.8 18.9 79% 75.64 1008.3
04 15:56 E 9 16.09 Fair CLR 23.9 18.9 74% 25 75.64 1008.3
04 14:56 NE 9 16.09 Fair CLR 23.9 18.9 74% 25 75.64 1008.4
04 13:56 N 9 16.09 Partly Cloudy SCT007 21.7 18.3 22.2 20 81% 75.69 1009.0
04 12:56 NW 7 16.09 Overcast OVC007 22.2 18.9 82% 75.72 1009.3
04 11:56 NW 9 16.09 Overcast OVC007 21.1 18.9 87% 75.74 1009.6
04 10:56 NW 11 16.09 Overcast OVC009 21.1 18.9 87% 75.77 1010.0
04 09:56 NW 6 16.09 Overcast OVC007 20.6 18.9 90% 75.77 1009.9
04 08:56 N 7 16.09 Overcast OVC005 20 19.4 96% 75.77 1010.1
04 07:56 NE 6 8.05 Fog/Mist OVC003 20 19.4 20 18.9 96% 75.77 1010.2
04 06:56 Calm 0.80 Fog OVC003 19.4 19.4 100% 75.77 1010.0
04 05:56 NE 6 0.80 Fog OVC003 19.4 19.4 100% 75.72 1009.5
04 04:56 Vrbl 6 0.80 Fog OVC003 20 20 100% 75.77 1009.9
04 03:56 Calm 0.80 Fog OVC003 19.4 19.4 100% 75.77 1009.9
04 02:56 SE 6 1.61 Fog/Mist OVC003 18.9 18.9 100% 75.79 1010.4
04 01:56 E 7 16.09 Overcast OVC005 18.9 18.3 19.4 18.3 96% 75.82 1010.9
04 00:56 E 9 16.09 Overcast OVC005 18.9 18.9 100% 75.9 1011.6
03 23:56 E 7 16.09 Partly Cloudy SCT009 18.9 18.3 96% 75.9 1011.8
03 22:56 E 7 16.09 Partly Cloudy FEW009 SCT031 SCT041 18.9 18.3 96% 75.92 1012.1
03 21:56 Calm 16.09 Overcast OVC009 18.3 18.3 100% 75.95 1012.5
03 20:56 Calm 16.09 Fair CLR 18.3 18.3 100% 75.95 1012.3
03 19:56 Calm 16.09 Fair CLR 19.4 18.3 24.4 19.4 93% 75.9 1011.9
03 18:56 NE 6 16.09 Mostly Cloudy BKN065 20.6 19.4 93% 75.92 1012.1
03 17:56 N 11 16.09 Overcast BKN046 OVC070 21.1 19.4 90% 75.92 1012.2
03 16:56 N 7 16.09 A Few Clouds FEW055 21.7 19.4 87% 75.92 1011.9
03 15:56 N 7 16.09 Mostly Cloudy BKN007 21.7 19.4 87% 75.95 1012.5
03 14:56 S 11 16.09 Overcast OVC014 23.9 21.7 88% 24 76 1013.0
03 13:56 S 17 16.09 Overcast SCT048 OVC065 23.9 21.7 25 17.8 88% 24 76.02 1013.5
03 12:56 S 13 16.09 Mostly Cloudy SCT009 BKN014 BKN055 23.3 21.7 91% 76 1013.2
03 11:56 S 15 16.09 Overcast FEW008 OVC013 22.2 21.1 94% 76.05 1013.8
03 10:56 S 20 16.09 Overcast SCT005 OVC013 20.6 20 96% 76.1 1014.4
03 09:56 S 20 G 33 16.09 Overcast BKN005 OVC012 20 19.4 96% 76.12 1014.8
03 08:56 S 20 G 35 16.09 Light Rain BKN007 OVC026 18.9 18.3 96% 76.12 1014.8
03 07:56 SE 22 G 33 12.87 Light Rain FEW016 OVC042 17.8 17.2 19.4 17.8 96% 76.2 1015.7
03 06:56 S 20 16.09 Light Rain BKN035 OVC050 18.9 16.7 87% 76.23 1016.1
03 05:56 SE 15 16.09 Light Rain FEW032 OVC042 18.3 17.2 93% 76.23 1016.1
03 04:56 S 15 16.09 Overcast OVC031 19.4 16.7 84% 76.28 1016.7
03 03:56 SE 13 16.09 Overcast BKN042 OVC095 18.9 17.2 90% 76.3 1017.0
03 02:56 SE 11 16.09 Overcast OVC080 18.3 17.2 93% 76.35 1017.8
03 01:56 SE 7 16.09 Fair CLR 17.8 16.1 18.3 17.2 90% 76.43 1018.9
03 00:56 SE 7 16.09 Fair CLR 17.2 15.6 90% 76.48 1019.5
02 23:56 SE 6 16.09 Fair CLR 17.8 14.4 81% 76.48 1019.7
02 22:56 SE 7 16.09 Fair CLR 17.8 14.4 81% 76.5 1019.9
02 21:56 SE 6 16.09 Fair CLR 18.3 16.1 87% 76.53 1020.3
02 20:56 SE 7 16.09 Fair CLR 17.8 15.6 87% 76.56 1020.5
02 19:56 E 7 16.09 Fair CLR 17.8 15.6 22.8 17.2 87% 76.58 1020.8
02 18:56 E 9 16.09 Fair CLR 19.4 15.6 79% 76.58 1021.0
02 17:56 E 11 16.09 Fair CLR 20.6 15 70% 76.61 1021.2
02 16:56 E 15 16.09 Fair CLR 21.1 16.1 73% 76.63 1021.5
02 15:56 NE 17 16.09 Fair CLR 22.2 16.1 68% 76.63 1021.7
02 14:56 NE 17 16.09 Fair CLR 22.2 15.6 66% 76.66 1021.9
02 13:56 NE 19 16.09 Fair CLR 22.8 15 23.9 19.4 62% 76.66 1022.0
02 12:56 NE 20 16.09 Fair CLR 22.8 15 62% 76.66 1021.9
02 11:56 NE 19 16.09 Overcast OVC090 22.8 15.6 64% 76.68 1022.3
02 10:56 E 11 16.09 Overcast OVC090 23.3 15 60% 76.68 1022.2
02 09:56 E 13 16.09 Overcast OVC090 21.1 15 68% 76.66 1021.8
02 08:56 E 13 16.09 Overcast OVC085 20.6 16.1 76% 76.66 1021.9
02 07:56 E 9 16.09 Overcast OVC090 19.4 16.1 19.4 17.2 81% 76.66 1021.8
02 06:56 E 11 16.09 Mostly Cloudy BKN080 18.9 16.1 84% 76.61 1021.2
02 05:56 E 11 16.09 Fair CLR 17.2 15.6 90% 76.58 1021.0
02 04:56 E 13 16.09 Mostly Cloudy BKN065 BKN085 18.9 15.6 81% 76.58 1020.8
02 03:56 E 11 16.09 Overcast OVC110 18.9 16.7 87% 76.56 1020.5
02 02:56 NE 11 16.09 Overcast OVC065 18.9 17.2 90% 76.56 1020.7
02 01:56 E 6 16.09 Overcast FEW065 OVC100 17.8 16.1 17.8 16.7 90% 76.53 1020.3
02 00:56 E 6 16.09 Overcast OVC100 17.8 15.6 87% 76.5 1019.8
01 23:56 E 6 16.09 Overcast OVC110 16.7 15.6 93% 76.48 1019.4
01 22:56 Calm 16.09 Mostly Cloudy SCT065 BKN110 16.7 15.6 93% 76.48 1019.5
01 21:56 E 7 16.09 Overcast OVC065 16.7 15.6 93% 76.45 1019.3
Date Time (edt) Wind (kph) Vis. (km) Weather Sky Cond. Air Dwpt Max. Min. Relative Humidity Wind Chill (°C) Heat Index (°C) altimeter (cm) sea level (mb) 1 hr 3 hr 6 hr
6 hour
Temperature (ºC) Pressure Precipitation (cm)